GTI1670 KLAX-KSFO
Flight info
| Callsign | GTI1670 |
|---|---|
| Flight time | 0h 54m |
| Altitude | 36000 |
| Route | SUMMR2 STOKD SERFR SERFR4 |
| Aircraft | B748/H-SDE3FGHIM1M2RWXY/LB1 |
Departure
| Time | 2026-04-23 04:04 |
|---|---|
| Airport | Los Angeles International Airport (KLAX) |
Arrival
| Time | 2026-04-23 04:58 |
|---|---|
| Airport | San Francisco International Airport (KSFO) |
| Time | Latitude | Longitude | Altitude | Speed | Heading |
|---|---|---|---|---|---|
| 2026-04-23 03:25 | 33.93311 | -118.40371 | 103 ft | 0 kts | 174° |
| 2026-04-23 03:39 | 33.93323 | -118.40373 | 104 ft | 4 kts | 174° |
| 2026-04-23 03:40 | 33.93350 | -118.40377 | 104 ft | 4 kts | 174° |
| 2026-04-23 03:40 | 33.93377 | -118.40381 | 101 ft | 4 kts | 162° |
| 2026-04-23 03:40 | 33.93395 | -118.40395 | 102 ft | 4 kts | 100° |
| 2026-04-23 03:40 | 33.93394 | -118.40419 | 101 ft | 4 kts | 83° |
| 2026-04-23 03:41 | 33.93392 | -118.40441 | 102 ft | 0 kts | 83° |
| 2026-04-23 03:46 | 33.93393 | -118.40430 | 100 ft | 4 kts | 83° |
| 2026-04-23 03:46 | 33.93400 | -118.40366 | 103 ft | 11 kts | 83° |
| 2026-04-23 03:46 | 33.93411 | -118.40255 | 103 ft | 16 kts | 83° |
| 2026-04-23 03:47 | 33.93427 | -118.40108 | 103 ft | 19 kts | 83° |
| 2026-04-23 03:47 | 33.93444 | -118.39940 | 103 ft | 21 kts | 83° |
| 2026-04-23 03:47 | 33.93462 | -118.39754 | 106 ft | 22 kts | 83° |
| 2026-04-23 03:47 | 33.93477 | -118.39615 | 106 ft | 15 kts | 83° |
| 2026-04-23 03:48 | 33.93488 | -118.39504 | 104 ft | 11 kts | 83° |
| 2026-04-23 03:48 | 33.93495 | -118.39436 | 105 ft | 5 kts | 83° |
| 2026-04-23 03:48 | 33.93497 | -118.39419 | 103 ft | 3 kts | 83° |
| 2026-04-23 03:48 | 33.93501 | -118.39377 | 103 ft | 7 kts | 83° |
| 2026-04-23 03:49 | 33.93503 | -118.39356 | 103 ft | 0 kts | 83° |
| 2026-04-23 03:49 | 33.93503 | -118.39355 | 103 ft | 1 kts | 83° |
| 2026-04-23 03:49 | 33.93506 | -118.39333 | 104 ft | 4 kts | 83° |
| 2026-04-23 03:50 | 33.93510 | -118.39287 | 105 ft | 7 kts | 83° |
| 2026-04-23 03:50 | 33.93518 | -118.39215 | 103 ft | 10 kts | 83° |
| 2026-04-23 03:50 | 33.93527 | -118.39120 | 103 ft | 13 kts | 83° |
| 2026-04-23 03:50 | 33.93539 | -118.39006 | 106 ft | 15 kts | 83° |
| 2026-04-23 03:51 | 33.93553 | -118.38870 | 104 ft | 18 kts | 83° |
| 2026-04-23 03:51 | 33.93569 | -118.38712 | 103 ft | 20 kts | 83° |
| 2026-04-23 03:51 | 33.93587 | -118.38537 | 104 ft | 22 kts | 83° |
| 2026-04-23 03:51 | 33.93598 | -118.38424 | 105 ft | 0 kts | 83° |
| 2026-04-23 03:53 | 33.93599 | -118.38415 | 105 ft | 3 kts | 83° |
| 2026-04-23 03:53 | 33.93600 | -118.38409 | 104 ft | 1 kts | 83° |
| 2026-04-23 03:53 | 33.93602 | -118.38388 | 105 ft | 4 kts | 83° |
| 2026-04-23 03:53 | 33.93607 | -118.38342 | 106 ft | 7 kts | 83° |
| 2026-04-23 03:54 | 33.93611 | -118.38308 | 106 ft | 0 kts | 82° |
| 2026-04-23 04:02 | 33.93615 | -118.38296 | 106 ft | 3 kts | 64° |
| 2026-04-23 04:02 | 33.93628 | -118.38283 | 106 ft | 2 kts | 26° |
| 2026-04-23 04:02 | 33.93652 | -118.38279 | 114 ft | 6 kts | 5° |
| 2026-04-23 04:02 | 33.93706 | -118.38283 | 107 ft | 8 kts | 348° |
| 2026-04-23 04:03 | 33.93734 | -118.38308 | 106 ft | 3 kts | 294° |
| 2026-04-23 04:03 | 33.93732 | -118.38337 | 105 ft | 8 kts | 264° |
| 2026-04-23 04:03 | 33.93699 | -118.38649 | 105 ft | 84 kts | 262° |
| 2026-04-23 04:03 | 33.93592 | -118.39689 | 147 ft | 158 kts | 263° |
| 2026-04-23 04:04 | 33.93446 | -118.41045 | 968 ft | 168 kts | 263° |
| 2026-04-23 04:04 | 33.93297 | -118.42434 | 1711 ft | 181 kts | 265° |
| 2026-04-23 04:04 | 33.93136 | -118.44006 | 2217 ft | 199 kts | 265° |
| 2026-04-23 04:04 | 33.92978 | -118.45727 | 2784 ft | 219 kts | 268° |
| 2026-04-23 04:05 | 33.92932 | -118.47713 | 3292 ft | 249 kts | 269° |
| 2026-04-23 04:05 | 33.92849 | -118.49832 | 4368 ft | 257 kts | 268° |
| 2026-04-23 04:05 | 33.92643 | -118.51996 | 5410 ft | 262 kts | 266° |
| 2026-04-23 04:05 | 33.92480 | -118.54185 | 6591 ft | 263 kts | 267° |
| 2026-04-23 04:06 | 33.92317 | -118.56387 | 7689 ft | 265 kts | 266° |
| 2026-04-23 04:06 | 33.92219 | -118.58561 | 8778 ft | 263 kts | 278° |
| 2026-04-23 04:06 | 33.92858 | -118.60594 | 9930 ft | 262 kts | 301° |
| 2026-04-23 04:06 | 33.93895 | -118.62429 | 10858 ft | 270 kts | 303° |
| 2026-04-23 04:07 | 33.94973 | -118.64351 | 11549 ft | 285 kts | 301° |
| 2026-04-23 04:07 | 33.96059 | -118.66434 | 12155 ft | 302 kts | 300° |
| 2026-04-23 04:07 | 33.97197 | -118.68645 | 12813 ft | 317 kts | 300° |
| 2026-04-23 04:07 | 33.98390 | -118.70916 | 13763 ft | 324 kts | 300° |
| 2026-04-23 04:08 | 33.99609 | -118.73222 | 14676 ft | 329 kts | 300° |
| 2026-04-23 04:08 | 34.00839 | -118.75566 | 15574 ft | 333 kts | 300° |
| 2026-04-23 04:08 | 34.02063 | -118.77909 | 16413 ft | 337 kts | 299° |
| 2026-04-23 04:08 | 34.03321 | -118.80315 | 17259 ft | 341 kts | 299° |
| 2026-04-23 04:09 | 34.04599 | -118.82755 | 18055 ft | 346 kts | 299° |
| 2026-04-23 04:09 | 34.05889 | -118.85221 | 18808 ft | 350 kts | 298° |
| 2026-04-23 04:09 | 34.07192 | -118.87713 | 19483 ft | 352 kts | 298° |
| 2026-04-23 04:09 | 34.08502 | -118.90225 | 20204 ft | 356 kts | 298° |
| 2026-04-23 04:10 | 34.09825 | -118.92766 | 20942 ft | 359 kts | 298° |
| 2026-04-23 04:10 | 34.11159 | -118.95323 | 21595 ft | 361 kts | 298° |
| 2026-04-23 04:10 | 34.12504 | -118.97897 | 22271 ft | 364 kts | 298° |
| 2026-04-23 04:10 | 34.13835 | -119.00454 | 22873 ft | 366 kts | 298° |
| 2026-04-23 04:11 | 34.15196 | -119.03072 | 23478 ft | 369 kts | 298° |
| 2026-04-23 04:11 | 34.16564 | -119.05705 | 23994 ft | 372 kts | 298° |
| 2026-04-23 04:11 | 34.17941 | -119.08355 | 24416 ft | 374 kts | 298° |
| 2026-04-23 04:11 | 34.19328 | -119.11026 | 24853 ft | 376 kts | 298° |
| 2026-04-23 04:12 | 34.20723 | -119.13715 | 25259 ft | 379 kts | 298° |
| 2026-04-23 04:12 | 34.22125 | -119.16421 | 25664 ft | 381 kts | 298° |
| 2026-04-23 04:12 | 34.23536 | -119.19144 | 26077 ft | 384 kts | 298° |
| 2026-04-23 04:12 | 34.24937 | -119.21851 | 26522 ft | 386 kts | 298° |
| 2026-04-23 04:13 | 34.26366 | -119.24614 | 26982 ft | 389 kts | 298° |
| 2026-04-23 04:13 | 34.27803 | -119.27397 | 27447 ft | 392 kts | 298° |
| 2026-04-23 04:13 | 34.29251 | -119.30199 | 27937 ft | 395 kts | 297° |
| 2026-04-23 04:13 | 34.30710 | -119.33027 | 28431 ft | 398 kts | 297° |
| 2026-04-23 04:14 | 34.32178 | -119.35875 | 28952 ft | 401 kts | 297° |
| 2026-04-23 04:14 | 34.33662 | -119.38754 | 29476 ft | 405 kts | 297° |
| 2026-04-23 04:14 | 34.35159 | -119.41661 | 30052 ft | 409 kts | 297° |
| 2026-04-23 04:14 | 34.36658 | -119.44574 | 30800 ft | 406 kts | 297° |
| 2026-04-23 04:15 | 34.38124 | -119.47424 | 31630 ft | 402 kts | 297° |
| 2026-04-23 04:15 | 34.39594 | -119.50289 | 32481 ft | 399 kts | 296° |
| 2026-04-23 04:15 | 34.43005 | -119.55570 | 34194 ft | 401 kts | 307° |
| 2026-04-23 04:16 | 34.44960 | -119.57963 | 34886 ft | 398 kts | 307° |
| 2026-04-23 04:16 | 34.46895 | -119.60351 | 35551 ft | 396 kts | 306° |
| 2026-04-23 04:16 | 34.48810 | -119.62709 | 35992 ft | 391 kts | 306° |
| 2026-04-23 04:17 | 34.52596 | -119.67364 | 36078 ft | 390 kts | 306° |
| 2026-04-23 04:17 | 34.56387 | -119.72049 | 36097 ft | 389 kts | 306° |
| 2026-04-23 04:18 | 34.60182 | -119.76724 | 36107 ft | 389 kts | 306° |
| 2026-04-23 04:18 | 34.63968 | -119.81409 | 36113 ft | 389 kts | 306° |
| 2026-04-23 04:19 | 34.67736 | -119.86072 | 36126 ft | 390 kts | 306° |
| 2026-04-23 04:19 | 34.71531 | -119.90773 | 36153 ft | 389 kts | 306° |
| 2026-04-23 04:20 | 34.75317 | -119.95481 | 36130 ft | 391 kts | 306° |
| 2026-04-23 04:20 | 34.79130 | -120.00218 | 36144 ft | 392 kts | 306° |
| 2026-04-23 04:21 | 34.82912 | -120.04922 | 36149 ft | 391 kts | 306° |
| 2026-04-23 04:21 | 34.86718 | -120.09667 | 36154 ft | 391 kts | 306° |
| 2026-04-23 04:22 | 34.90515 | -120.14410 | 36199 ft | 392 kts | 306° |
| 2026-04-23 04:22 | 34.94319 | -120.19163 | 36183 ft | 392 kts | 306° |
| 2026-04-23 04:23 | 34.98096 | -120.23887 | 36180 ft | 392 kts | 306° |
| 2026-04-23 04:23 | 35.01895 | -120.28651 | 36183 ft | 392 kts | 306° |
| 2026-04-23 04:24 | 35.05692 | -120.33421 | 36188 ft | 392 kts | 306° |
| 2026-04-23 04:24 | 35.09534 | -120.38144 | 36193 ft | 394 kts | 309° |
| 2026-04-23 04:25 | 35.13564 | -120.42645 | 36183 ft | 396 kts | 309° |
| 2026-04-23 04:25 | 35.17614 | -120.47185 | 36174 ft | 394 kts | 309° |
| 2026-04-23 04:26 | 35.21651 | -120.51717 | 36174 ft | 394 kts | 310° |
| 2026-04-23 04:26 | 35.25697 | -120.56263 | 36186 ft | 393 kts | 309° |
| 2026-04-23 04:27 | 35.29739 | -120.60807 | 36182 ft | 395 kts | 309° |
| 2026-04-23 04:27 | 35.33750 | -120.65320 | 36179 ft | 394 kts | 309° |
| 2026-04-23 04:28 | 35.39801 | -120.72151 | 36188 ft | 394 kts | 309° |
| 2026-04-23 04:28 | 35.43823 | -120.76698 | 36191 ft | 394 kts | 309° |
| 2026-04-23 04:29 | 35.47822 | -120.81221 | 36196 ft | 393 kts | 310° |
| 2026-04-23 04:29 | 35.52198 | -120.85376 | 36201 ft | 398 kts | 314° |
| 2026-04-23 04:30 | 35.56607 | -120.89482 | 36202 ft | 398 kts | 314° |
| 2026-04-23 04:30 | 35.61006 | -120.93556 | 36198 ft | 394 kts | 314° |
| 2026-04-23 04:31 | 35.65349 | -120.97604 | 36193 ft | 395 kts | 314° |
| 2026-04-23 04:31 | 35.69749 | -121.01696 | 36194 ft | 396 kts | 314° |
| 2026-04-23 04:32 | 35.74141 | -121.05795 | 36219 ft | 396 kts | 314° |
| 2026-04-23 04:32 | 35.78522 | -121.09883 | 36202 ft | 395 kts | 313° |
| 2026-04-23 04:33 | 35.82865 | -121.13948 | 36209 ft | 395 kts | 314° |
| 2026-04-23 04:33 | 35.87216 | -121.18018 | 36205 ft | 390 kts | 314° |
| 2026-04-23 04:34 | 35.91541 | -121.22082 | 35912 ft | 392 kts | 314° |
| 2026-04-23 04:34 | 35.93713 | -121.24121 | 35419 ft | 391 kts | 314° |
| 2026-04-23 04:34 | 35.95869 | -121.26139 | 34974 ft | 386 kts | 314° |
| 2026-04-23 04:35 | 35.97964 | -121.28107 | 34561 ft | 382 kts | 314° |
| 2026-04-23 04:35 | 36.00071 | -121.30095 | 34138 ft | 382 kts | 314° |
| 2026-04-23 04:35 | 36.02185 | -121.32090 | 33686 ft | 382 kts | 314° |
| 2026-04-23 04:35 | 36.04309 | -121.34090 | 33245 ft | 385 kts | 314° |
| 2026-04-23 04:36 | 36.06443 | -121.36094 | 32802 ft | 387 kts | 315° |
| 2026-04-23 04:36 | 36.08716 | -121.37935 | 32366 ft | 394 kts | 319° |
| 2026-04-23 04:36 | 36.11037 | -121.39739 | 31904 ft | 395 kts | 319° |
| 2026-04-23 04:36 | 36.13366 | -121.41556 | 31442 ft | 397 kts | 319° |
| 2026-04-23 04:37 | 36.15711 | -121.43385 | 30958 ft | 400 kts | 319° |
| 2026-04-23 04:37 | 36.18034 | -121.45200 | 30478 ft | 401 kts | 319° |
| 2026-04-23 04:37 | 36.20388 | -121.47042 | 29969 ft | 400 kts | 320° |
| 2026-04-23 04:37 | 36.22737 | -121.48874 | 29469 ft | 398 kts | 320° |
| 2026-04-23 04:38 | 36.25067 | -121.50694 | 29000 ft | 394 kts | 320° |
| 2026-04-23 04:38 | 36.27363 | -121.52497 | 28520 ft | 386 kts | 320° |
| 2026-04-23 04:38 | 36.29631 | -121.54269 | 28041 ft | 386 kts | 320° |
| 2026-04-23 04:38 | 36.31903 | -121.56052 | 27576 ft | 386 kts | 320° |
| 2026-04-23 04:39 | 36.34160 | -121.57827 | 27106 ft | 383 kts | 320° |
| 2026-04-23 04:39 | 36.36408 | -121.59592 | 26647 ft | 381 kts | 320° |
| 2026-04-23 04:39 | 36.38610 | -121.61316 | 26179 ft | 379 kts | 321° |
| 2026-04-23 04:39 | 36.40833 | -121.63065 | 25704 ft | 377 kts | 321° |
| 2026-04-23 04:40 | 36.43040 | -121.64805 | 25261 ft | 375 kts | 321° |
| 2026-04-23 04:40 | 36.45240 | -121.66538 | 24819 ft | 372 kts | 322° |
| 2026-04-23 04:40 | 36.47414 | -121.68246 | 24670 ft | 368 kts | 321° |
| 2026-04-23 04:40 | 36.49554 | -121.69930 | 24523 ft | 360 kts | 321° |
| 2026-04-23 04:41 | 36.51669 | -121.71602 | 23918 ft | 359 kts | 321° |
| 2026-04-23 04:41 | 36.53759 | -121.73256 | 23386 ft | 354 kts | 322° |
| 2026-04-23 04:41 | 36.55824 | -121.74886 | 22929 ft | 349 kts | 322° |
| 2026-04-23 04:41 | 36.57840 | -121.76481 | 22469 ft | 347 kts | 322° |
| 2026-04-23 04:42 | 36.59880 | -121.78098 | 21814 ft | 347 kts | 322° |
| 2026-04-23 04:42 | 36.61906 | -121.79702 | 21336 ft | 343 kts | 323° |
| 2026-04-23 04:42 | 36.63914 | -121.81291 | 20882 ft | 342 kts | 323° |
| 2026-04-23 04:42 | 36.65911 | -121.82876 | 20452 ft | 339 kts | 323° |
| 2026-04-23 04:43 | 36.67886 | -121.84442 | 19998 ft | 334 kts | 323° |
| 2026-04-23 04:43 | 36.69836 | -121.85991 | 19552 ft | 332 kts | 323° |
| 2026-04-23 04:43 | 36.71752 | -121.87514 | 19131 ft | 330 kts | 323° |
| 2026-04-23 04:43 | 36.73699 | -121.89023 | 18704 ft | 330 kts | 329° |
| 2026-04-23 04:44 | 36.75888 | -121.89948 | 18226 ft | 335 kts | 342° |
| 2026-04-23 04:44 | 36.78164 | -121.90576 | 17775 ft | 335 kts | 343° |
| 2026-04-23 04:44 | 36.80449 | -121.91169 | 17333 ft | 336 kts | 343° |
| 2026-04-23 04:44 | 36.82725 | -121.91799 | 16890 ft | 334 kts | 343° |
| 2026-04-23 04:45 | 36.84972 | -121.92441 | 16440 ft | 329 kts | 343° |
| 2026-04-23 04:45 | 36.87200 | -121.93068 | 16004 ft | 327 kts | 343° |
| 2026-04-23 04:45 | 36.89387 | -121.93675 | 15582 ft | 326 kts | 344° |
| 2026-04-23 04:45 | 36.91590 | -121.94289 | 15155 ft | 324 kts | 344° |
| 2026-04-23 04:46 | 36.93786 | -121.94904 | 14731 ft | 323 kts | 344° |
| 2026-04-23 04:46 | 36.95947 | -121.95608 | 14308 ft | 319 kts | 340° |
| 2026-04-23 04:46 | 36.98063 | -121.96438 | 13865 ft | 318 kts | 341° |
| 2026-04-23 04:46 | 37.00172 | -121.97250 | 13425 ft | 318 kts | 341° |
| 2026-04-23 04:47 | 37.02291 | -121.98073 | 13002 ft | 318 kts | 341° |
| 2026-04-23 04:47 | 37.04393 | -121.98895 | 12585 ft | 316 kts | 341° |
| 2026-04-23 04:47 | 37.06477 | -121.99710 | 12162 ft | 313 kts | 341° |
| 2026-04-23 04:47 | 37.08524 | -122.00508 | 11763 ft | 311 kts | 342° |
| 2026-04-23 04:48 | 37.10572 | -122.01308 | 11351 ft | 307 kts | 342° |
| 2026-04-23 04:48 | 37.12601 | -122.02101 | 10947 ft | 304 kts | 342° |
| 2026-04-23 04:48 | 37.14610 | -122.02888 | 10546 ft | 301 kts | 343° |
| 2026-04-23 04:48 | 37.16603 | -122.03668 | 10145 ft | 297 kts | 343° |
| 2026-04-23 04:49 | 37.18548 | -122.04428 | 9725 ft | 289 kts | 343° |
| 2026-04-23 04:49 | 37.20437 | -122.05166 | 9348 ft | 280 kts | 343° |
| 2026-04-23 04:49 | 37.22273 | -122.05886 | 8981 ft | 274 kts | 343° |
| 2026-04-23 04:49 | 37.24047 | -122.06582 | 8628 ft | 268 kts | 343° |
| 2026-04-23 04:50 | 37.25814 | -122.07276 | 8279 ft | 263 kts | 343° |
| 2026-04-23 04:50 | 37.27552 | -122.07959 | 7967 ft | 262 kts | 343° |
| 2026-04-23 04:50 | 37.29303 | -122.08646 | 7616 ft | 264 kts | 343° |
| 2026-04-23 04:50 | 37.31046 | -122.09333 | 7289 ft | 257 kts | 343° |
| 2026-04-23 04:51 | 37.32749 | -122.10005 | 6952 ft | 256 kts | 343° |
| 2026-04-23 04:51 | 37.34443 | -122.10673 | 6600 ft | 254 kts | 343° |
| 2026-04-23 04:51 | 37.36133 | -122.11339 | 6258 ft | 254 kts | 343° |
| 2026-04-23 04:51 | 37.37793 | -122.11967 | 5932 ft | 252 kts | 347° |
| 2026-04-23 04:52 | 37.39487 | -122.12508 | 5625 ft | 251 kts | 345° |
| 2026-04-23 04:52 | 37.41156 | -122.13123 | 5312 ft | 250 kts | 345° |
| 2026-04-23 04:52 | 37.42823 | -122.13715 | 4999 ft | 248 kts | 346° |
| 2026-04-23 04:52 | 37.44482 | -122.14276 | 4690 ft | 247 kts | 346° |
| 2026-04-23 04:53 | 37.46124 | -122.14834 | 4389 ft | 235 kts | 346° |
| 2026-04-23 04:53 | 37.47637 | -122.15356 | 4103 ft | 218 kts | 346° |
| 2026-04-23 04:53 | 37.49090 | -122.15856 | 3849 ft | 216 kts | 346° |
| 2026-04-23 04:53 | 37.50513 | -122.16345 | 3592 ft | 214 kts | 346° |
| 2026-04-23 04:54 | 37.51952 | -122.16839 | 3329 ft | 214 kts | 346° |
| 2026-04-23 04:54 | 37.53312 | -122.17561 | 3063 ft | 215 kts | 323° |
| 2026-04-23 04:54 | 37.54184 | -122.19060 | 2817 ft | 210 kts | 297° |
| 2026-04-23 04:54 | 37.54815 | -122.20651 | 2557 ft | 197 kts | 300° |
| 2026-04-23 04:55 | 37.55436 | -122.22138 | 2313 ft | 187 kts | 300° |
| 2026-04-23 04:55 | 37.56033 | -122.23566 | 2087 ft | 181 kts | 300° |
| 2026-04-23 04:55 | 37.56613 | -122.24950 | 1848 ft | 177 kts | 300° |
| 2026-04-23 04:55 | 37.57182 | -122.26304 | 1613 ft | 172 kts | 299° |
| 2026-04-23 04:56 | 37.57706 | -122.27556 | 1414 ft | 158 kts | 299° |
| 2026-04-23 04:56 | 37.58219 | -122.28774 | 1231 ft | 155 kts | 299° |
| 2026-04-23 04:56 | 37.58716 | -122.29960 | 1169 ft | 156 kts | 299° |
| 2026-04-23 04:56 | 37.59225 | -122.31168 | 902 ft | 154 kts | 298° |
| 2026-04-23 04:57 | 37.59713 | -122.32356 | 729 ft | 149 kts | 297° |
| 2026-04-23 04:57 | 37.60183 | -122.33489 | 478 ft | 144 kts | 297° |
| 2026-04-23 04:57 | 37.60646 | -122.34589 | 306 ft | 139 kts | 297° |
| 2026-04-23 04:57 | 37.61094 | -122.35656 | 112 ft | 137 kts | 297° |
| 2026-04-23 04:58 | 37.61511 | -122.36653 | 34 ft | 119 kts | 298° |
| 2026-04-23 04:58 | 37.61817 | -122.37375 | 32 ft | 58 kts | 297° |
| 2026-04-23 04:58 | 37.61977 | -122.37760 | 32 ft | 43 kts | 298° |
| 2026-04-23 04:58 | 37.62110 | -122.38074 | 32 ft | 37 kts | 297° |
| 2026-04-23 04:59 | 37.62187 | -122.38260 | 32 ft | 13 kts | 297° |
| 2026-04-23 04:59 | 37.62192 | -122.38312 | 32 ft | 3 kts | 245° |
| 2026-04-23 04:59 | 37.62166 | -122.38337 | 32 ft | 7 kts | 208° |
| 2026-04-23 04:59 | 37.62126 | -122.38380 | 32 ft | 5 kts | 249° |
| 2026-04-23 05:00 | 37.62133 | -122.38425 | 32 ft | 7 kts | 294° |
| 2026-04-23 05:00 | 37.62168 | -122.38510 | 32 ft | 14 kts | 297° |